Time;durP1;ratioP1;P1;durP2;ratioP2;P2;SDS_P1;SDS_P2;PMS_P1;PMS_P2;Temp;Humidity;BMP_temperature;BMP_pressure;BME280_temperature;BME280_humidity;BME280_pressure;Samples;Min_cycle;Max_cycle;Signal;HPM_P1;HPM_P2
2022/11/03 06:58:17;;;;;;;6.80;1.70;;;;;;;;;;10588133;27;20401;-84
2022/11/03 07:03:29;;;;;;;7.53;2.17;;;;;;;;;;10589561;28;20024;-84
2022/11/03 07:08:33;;;;;;;6.25;1.88;;;;;;;;;;10589777;28;20031;-84
2022/11/03 07:13:35;;;;;;;7.38;1.83;;;;;;;;;;10589006;28;20538;-84
2022/11/03 07:18:40;;;;;;;5.38;2.20;;;;;;;;;;10593224;28;20034;-83
2022/11/03 07:23:41;;;;;;;2.95;1.40;;;;;;;;;;10607737;28;20040;-84
2022/11/03 07:28:42;;;;;;;;;;;;;;;;;;10585151;28;20119;-83
2022/11/03 07:33:43;;;;;;;4.55;1.90;;;;;;;;;;10587033;28;19952;-84
2022/11/03 07:38:46;;;;;;;4.80;1.73;;;;;;;;;;10585026;28;20082;-83
2022/11/03 07:43:53;;;;;;;6.35;3.58;;;;;;;;;;10587133;28;20020;-84
2022/11/03 07:48:58;;;;;;;3.97;1.58;;;;;;;;;;10585648;28;20473;-83
2022/11/03 07:54:05;;;;;;;6.57;1.92;;;;;;;;;;10585891;28;20032;-83
2022/11/03 07:59:10;;;;;;;3.75;1.38;;;;;;;;;;10586539;28;20076;-84
2022/11/03 08:04:13;;;;;;;5.70;2.00;;;;;;;;;;10583505;28;20027;-84
2022/11/03 08:09:14;;;;;;;6.40;1.80;;;;;;;;;;10546897;28;20023;-83
2022/11/03 08:14:15;;;;;;;4.07;1.40;;;;;;;;;;10549836;28;20147;-82
2022/11/03 08:19:16;;;;;;;5.10;1.52;;;;;;;;;;10554645;28;20424;-83
2022/11/03 08:24:17;;;;;;;7.10;2.22;;;;;;;;;;10557618;28;20505;-82
2022/11/03 08:29:18;;;;;;;4.53;1.77;;;;;;;;;;10566141;28;20393;-83
2022/11/03 08:34:19;;;;;;;6.32;2.40;;;;;;;;;;10558973;28;20020;-85
2022/11/03 08:39:20;;;;;;;3.58;1.65;;;;;;;;;;10553327;28;20123;-84
2022/11/03 08:44:21;;;;;;;4.13;1.95;;;;;;;;;;10558092;28;20028;-84
2022/11/03 08:49:22;;;;;;;6.57;2.60;;;;;;;;;;10555311;28;20435;-85
2022/11/03 08:54:23;;;;;;;5.40;2.13;;;;;;;;;;10557458;28;20059;-84
2022/11/03 08:59:25;;;;;;;4.78;1.80;;;;;;;;;;10572919;28;20083;-83
2022/11/03 09:04:29;;;;;;;9.45;2.35;;;;;;;;;;10574303;28;20024;-83
2022/11/03 09:09:30;;;;;;;8.93;2.25;;;;;;;;;;10570811;28;20028;-83
2022/11/03 09:14:31;;;;;;;7.15;2.33;;;;;;;;;;10572624;28;20092;-81
2022/11/03 09:19:32;;;;;;;5.85;2.78;;;;;;;;;;10574623;28;20050;-82
2022/11/03 09:24:33;;;;;;;5.22;2.00;;;;;;;;;;10558460;28;20027;-84
2022/11/03 09:29:34;;;;;;;7.45;2.03;;;;;;;;;;10552955;28;20038;-84
2022/11/03 09:34:35;;;;;;;5.32;1.90;;;;;;;;;;10555758;28;20039;-83
2022/11/03 09:39:39;;;;;;;7.63;1.83;;;;;;;;;;10556137;28;20059;-83
2022/11/03 09:44:45;;;;;;;6.63;2.38;;;;;;;;;;10562692;28;20087;-84
2022/11/03 09:49:46;;;;;;;5.97;1.92;;;;;;;;;;10558308;28;20021;-84
2022/11/03 09:54:47;;;;;;;7.18;2.85;;;;;;;;;;10559088;28;20043;-82
2022/11/03 09:59:49;;;;;;;4.72;1.80;;;;;;;;;;10560212;28;20047;-83
2022/11/03 10:10:30;;;;;;;4.78;1.85;;;;;;;;;;10459923;28;20431;-89
2022/11/03 10:21:11;;;;;;;5.13;1.73;;;;;;;;;;10500922;28;20024;-87
2022/11/03 10:26:18;;;;;;;7.25;1.88;;;;;;;;;;10490426;28;20086;-85
2022/11/03 10:31:20;;;;;;;6.25;1.90;;;;;;;;;;10487568;28;20021;-87
2022/11/03 10:36:52;;;;;;;4.93;1.90;;;;;;;;;;10482206;28;20346;-88
2022/11/03 10:48:25;;;;;;;3.92;1.77;;;;;;;;;;10496923;28;20028;-85
2022/11/03 10:53:47;;;;;;;6.13;1.88;;;;;;;;;;10492376;28;20505;-85
2022/11/03 10:58:49;;;;;;;3.97;1.92;;;;;;;;;;10486777;28;20021;-88
2022/11/03 11:04:20;;;;;;;3.55;1.67;;;;;;;;;;10482729;28;20127;-88
2022/11/03 11:09:26;;;;;;;5.63;1.98;;;;;;;;;;10484573;28;20123;-87
2022/11/03 11:14:27;;;;;;;4.15;1.65;;;;;;;;;;10483663;28;20100;-85
2022/11/03 11:19:28;;;;;;;;;;;;;;;;;;10491128;28;20438;-85
2022/11/03 11:24:44;;;;;;;3.58;1.77;;;;;;;;;;10530818;28;19982;-85
2022/11/03 11:29:45;;;;;;;2.72;1.40;;;;;;;;;;10482054;28;20036;-85
2022/11/03 11:34:46;;;;;;;4.15;1.42;;;;;;;;;;10482534;28;20065;-85
2022/11/03 11:39:47;;;;;;;;;;;;;;;;;;10481674;28;20066;-85
2022/11/03 11:44:58;;;;;;;3.30;1.40;;;;;;;;;;10508649;28;20291;-90
2022/11/03 11:50:06;;;;;;;6.00;1.70;;;;;;;;;;10488307;28;20031;-88
2022/11/03 11:55:16;;;;;;;7.28;4.18;;;;;;;;;;10490408;28;20454;-88
2022/11/03 12:00:19;;;;;;;3.75;1.88;;;;;;;;;;10491849;28;20028;-88
2022/11/03 12:05:22;;;;;;;5.03;1.50;;;;;;;;;;10492305;28;20036;-85
2022/11/03 12:10:25;;;;;;;4.25;1.10;;;;;;;;;;10496631;28;20032;-88
2022/11/03 12:15:45;;;;;;;3.50;1.20;;;;;;;;;;10493346;28;20036;-86
2022/11/03 12:20:46;;;;;;;6.73;1.50;;;;;;;;;;10513050;28;20434;-87
2022/11/03 12:25:47;;;;;;;2.10;1.20;;;;;;;;;;10486840;28;20397;-84
2022/11/03 12:30:48;;;;;;;3.95;1.40;;;;;;;;;;10488646;28;20107;-85
2022/11/03 12:35:49;;;;;;;;;;;;;;;;;;10488040;28;20034;-85
2022/11/03 12:40:52;;;;;;;3.92;1.52;;;;;;;;;;10507080;28;19915;-86
2022/11/03 12:45:54;;;;;;;2.50;1.30;;;;;;;;;;10493613;28;20416;-85
2022/11/03 12:50:55;;;;;;;3.33;1.30;;;;;;;;;;10488911;28;20074;-85
2022/11/03 12:55:56;;;;;;;;;;;;;;;;;;10496768;28;20029;-85
2022/11/03 13:00:57;;;;;;;5.90;1.88;;;;;;;;;;10531341;28;20362;-85
2022/11/03 13:05:58;;;;;;;3.10;1.30;;;;;;;;;;10490594;28;20040;-85
2022/11/03 13:10:59;;;;;;;3.88;1.45;;;;;;;;;;10490565;28;20071;-85
2022/11/03 13:16:00;;;;;;;;;;;;;;;;;;10491520;28;20073;-86
2022/11/03 13:21:03;;;;;;;4.07;1.70;;;;;;;;;;10510054;28;19927;-85
2022/11/03 13:26:04;;;;;;;7.95;3.88;;;;;;;;;;10496580;28;20024;-84
2022/11/03 13:31:05;;;;;;;5.10;1.50;;;;;;;;;;10494462;28;20029;-83
2022/11/03 13:36:06;;;;;;;4.50;1.88;;;;;;;;;;10491034;28;20116;-85
2022/11/03 13:41:09;;;;;;;3.88;1.27;;;;;;;;;;10490527;28;20028;-84
2022/11/03 13:46:11;;;;;;;3.90;1.40;;;;;;;;;;10489643;28;20031;-86
2022/11/03 13:51:16;;;;;;;6.63;1.88;;;;;;;;;;10489336;28;20028;-85
2022/11/03 13:56:17;;;;;;;4.63;1.60;;;;;;;;;;10487828;28;20020;-83
2022/11/03 14:01:22;;;;;;;4.25;1.40;;;;;;;;;;10488694;28;20021;-85
2022/11/03 14:06:23;;;;;;;4.18;1.67;;;;;;;;;;10484377;28;20132;-85
2022/11/03 14:16:44;;;;;;;5.53;1.90;;;;;;;;;;10504923;28;20032;-85
2022/11/03 14:21:45;;;;;;;4.32;1.50;;;;;;;;;;10484751;28;20472;-86
2022/11/03 14:26:46;;;;;;;3.30;1.52;;;;;;;;;;10483829;28;20082;-85
2022/11/03 14:31:47;;;;;;;7.10;2.10;;;;;;;;;;10484491;28;20048;-83
2022/11/03 14:36:48;;;;;;;4.13;1.70;;;;;;;;;;10483922;28;20091;-84
2022/11/03 14:42:05;;;;;;;4.43;1.70;;;;;;;;;;10486644;28;20088;-86
2022/11/03 14:47:08;;;;;;;4.65;1.67;;;;;;;;;;10486447;28;20049;-85
2022/11/03 14:52:09;;;;;;;5.25;1.88;;;;;;;;;;10486527;28;20025;-86
2022/11/03 14:57:10;;;;;;;3.17;1.73;;;;;;;;;;10487605;28;20073;-85
2022/11/03 15:02:12;;;;;;;5.85;1.75;;;;;;;;;;10486420;28;20033;-86
2022/11/03 15:07:13;;;;;;;6.13;2.00;;;;;;;;;;10480474;28;20029;-89
2022/11/03 15:12:14;;;;;;;4.72;2.25;;;;;;;;;;10481468;28;20457;-85
2022/11/03 15:17:15;;;;;;;;;;;;;;;;;;10488942;28;20127;-85
2022/11/03 15:22:16;;;;;;;4.07;1.58;;;;;;;;;;10516172;28;19910;-88
2022/11/03 15:27:17;;;;;;;3.15;1.48;;;;;;;;;;10502836;28;20112;-89
2022/11/03 15:32:18;;;;;;;4.72;1.73;;;;;;;;;;10502921;28;20439;-88
2022/11/03 15:37:19;;;;;;;4.22;1.58;;;;;;;;;;10497531;28;20482;-88
2022/11/03 15:42:20;;;;;;;4.90;1.80;;;;;;;;;;10494399;28;20038;-87
2022/11/03 15:47:21;;;;;;;3.42;1.60;;;;;;;;;;10494097;28;20118;-88
2022/11/03 15:52:22;;;;;;;3.78;1.98;;;;;;;;;;10488375;28;20111;-87
2022/11/03 15:57:23;;;;;;;4.40;2.28;;;;;;;;;;10487440;28;20056;-88
2022/11/03 16:02:24;;;;;;;4.82;1.63;;;;;;;;;;10497363;28;20025;-88
2022/11/03 16:07:32;;;;;;;3.47;1.50;;;;;;;;;;10636682;23;20152;-82
2022/11/03 16:12:34;;;;;;;6.35;2.55;;;;;;;;;;10597111;28;20030;-83
2022/11/03 16:17:48;;;;;;;5.20;2.05;;;;;;;;;;10593203;28;20035;-83
2022/11/03 16:23:05;;;;;;;;;;;;;;;;;;;;;
2022/11/03 16:28:07;;;;;;;5.72;2.20;;;;;;;;;;10622449;28;20046;-82
2022/11/03 16:33:11;;;;;;;7.50;2.30;;;;;;;;;;10600839;28;20039;-83
2022/11/03 16:38:14;;;;;;;4.72;2.17;;;;;;;;;;10583286;28;20544;-82
2022/11/03 16:43:45;;;;;;;4.22;2.50;;;;;;;;;;10601685;28;20011;-82
2022/11/03 16:48:52;;;;;;;3.72;2.10;;;;;;;;;;10583727;28;20426;-83
2022/11/03 16:54:20;;;;;;;7.03;3.05;;;;;;;;;;10602574;28;20031;-82
2022/11/03 17:00:01;;;;;;;4.90;2.58;;;;;;;;;;10597773;28;20024;-82
2022/11/03 17:05:02;;;;;;;4.82;2.63;;;;;;;;;;10402751;28;20034;-82
2022/11/03 17:10:23;;;;;;;5.43;2.60;;;;;;;;;;10569603;28;20028;-82
2022/11/03 17:16:18;;;;;;;5.60;3.03;;;;;;;;;;10575995;28;20033;-81
2022/11/03 17:21:12;;;;;;;5.35;2.70;;;;;;;;;;10592196;28;20081;-79
2022/11/03 17:26:13;;;;;;;5.50;3.05;;;;;;;;;;10581917;28;20094;-80
2022/11/03 17:31:15;;;;;;;4.93;2.75;;;;;;;;;;10582985;28;20089;-83
2022/11/03 17:36:16;;;;;;;6.93;3.08;;;;;;;;;;10576818;28;20446;-83
2022/11/03 17:41:17;;;;;;;;;;;;;;;;;;10577760;28;20027;-83
2022/11/03 17:46:18;;;;;;;4.32;2.70;;;;;;;;;;10595836;28;20385;-83
2022/11/03 17:51:19;;;;;;;7.72;4.78;;;;;;;;;;10594002;28;20106;-83
2022/11/03 17:56:22;;;;;;;5.38;2.90;;;;;;;;;;10573625;28;20055;-83
2022/11/03 18:01:24;;;;;;;4.85;2.70;;;;;;;;;;10573355;28;20435;-83
2022/11/03 18:06:25;;;;;;;6.40;4.25;;;;;;;;;;10590780;28;20550;-83
2022/11/03 18:16:46;;;;;;;6.75;3.50;;;;;;;;;;10592614;28;19904;-84
2022/11/03 18:21:47;;;;;;;5.75;3.30;;;;;;;;;;10571634;28;20111;-83
2022/11/03 18:26:48;;;;;;;5.63;3.40;;;;;;;;;;10572403;28;20027;-83
2022/11/03 18:31:49;;;;;;;;;;;;;;;;;;10571954;28;20046;-83
2022/11/03 18:36:51;;;;;;;6.47;3.20;;;;;;;;;;10571898;28;19904;-83
2022/11/03 18:41:52;;;;;;;7.68;3.90;;;;;;;;;;10591006;28;20076;-83
2022/11/03 18:46:54;;;;;;;4.20;3.10;;;;;;;;;;10571906;28;20144;-83
2022/11/03 18:51:57;;;;;;;5.40;2.95;;;;;;;;;;10589591;28;20024;-83
2022/11/03 18:56:58;;;;;;;5.82;3.08;;;;;;;;;;10577780;28;20039;-83
2022/11/03 19:01:59;;;;;;;;;;;;;;;;;;10594936;28;20077;-83
2022/11/03 19:07:02;;;;;;;5.85;3.35;;;;;;;;;;10566973;28;19964;-82
2022/11/03 19:12:03;;;;;;;4.68;2.90;;;;;;;;;;10568203;28;20028;-83
2022/11/03 19:17:04;;;;;;;;;;;;;;;;;;10567553;28;20092;-83
2022/11/03 19:22:11;;;;;;;4.22;2.33;;;;;;;;;;10575794;28;19907;-84
2022/11/03 19:27:21;;;;;;;4.90;3.25;;;;;;;;;;10576129;28;20030;-84
2022/11/03 19:32:25;;;;;;;5.60;3.28;;;;;;;;;;10573937;28;20106;-84
2022/11/03 19:37:26;;;;;;;4.72;3.00;;;;;;;;;;10576316;28;20392;-83
2022/11/03 19:42:28;;;;;;;3.05;2.45;;;;;;;;;;10588868;28;20023;-83
2022/11/03 19:47:39;;;;;;;4.22;2.80;;;;;;;;;;10569165;28;20412;-83
2022/11/03 19:52:40;;;;;;;4.57;2.58;;;;;;;;;;10587263;28;20024;-83
2022/11/03 19:57:41;;;;;;;4.63;2.65;;;;;;;;;;10568021;28;20031;-83
2022/11/03 20:02:43;;;;;;;;;;;;;;;;;;10571469;28;20024;-83
2022/11/03 20:07:44;;;;;;;3.83;2.38;;;;;;;;;;10575509;28;19945;-83
2022/11/03 20:12:44;;;;;;;;;;;;;;;;;;10596349;28;20026;-83
2022/11/03 20:17:46;;;;;;;5.32;3.05;;;;;;;;;;10575079;28;19904;-83
